Time;durP1;ratioP1;P1;durP2;ratioP2;P2;SDS_P1;SDS_P2;PMS_P1;PMS_P2;Temp;Humidity;BMP_temperature;BMP_pressure;BME280_temperature;BME280_humidity;BME280_pressure;Samples;Min_cycle;Max_cycle;Signal;HPM_P1;HPM_P2
2021/08/21 00:00:04;;;;;;;;;;;;;;;20.47;100.00;99052.34;5074498;28;20015;-78
2021/08/21 00:02:38;;;;;;;;;;;;;;;20.28;100.00;99063.13;5074853;28;19932;-78
2021/08/21 00:05:05;;;;;;;;;;;;;;;20.11;100.00;99058.41;5060845;28;19932;-78
2021/08/21 00:07:33;;;;;;;;;;;;;;;20.05;100.00;99063.97;5043402;28;19924;-78
2021/08/21 00:10:01;;;;;;;;;;;;;;;20.00;100.00;99053.31;5054500;28;19928;-78
2021/08/21 00:12:28;;;;;;;;;;;;;;;19.79;100.00;99056.50;5057580;28;20391;-78
2021/08/21 00:14:56;;;;;;;;;;;;;;;19.61;100.00;99055.38;5074489;28;19925;-78
2021/08/21 00:17:23;;;;;;;;;;;;;;;19.70;100.00;99063.78;5064476;28;19925;-78
2021/08/21 00:19:50;;;;;;;;;;;;;;;19.89;100.00;99053.09;5091291;28;20249;-78
2021/08/21 00:22:17;;;;;;;;;;;;;;;19.90;100.00;99048.22;5058857;28;19929;-77
2021/08/21 00:24:44;;;;;;;;;;;;;;;19.89;100.00;99046.66;5085275;28;19928;-78
2021/08/21 00:27:11;;;;;;;;;;;;;;;20.04;100.00;99050.28;5067697;28;19932;-78
2021/08/21 00:29:39;;;;;;;;;;;;;;;19.87;100.00;99043.50;5054579;28;20019;-78
2021/08/21 00:32:11;;;;;;;;;;;;;;;19.81;100.00;99036.97;5061746;28;19936;-78
2021/08/21 00:34:38;;;;;;;;;;;;;;;19.81;100.00;99046.25;5071780;28;20391;-78
2021/08/21 00:37:06;;;;;;;;;;;;;;;19.88;100.00;99047.91;5071117;28;19932;-78
2021/08/21 00:39:34;;;;;;;;;;;;;;;19.97;100.00;99042.16;5048224;28;20414;-78
2021/08/21 00:42:01;;;;;;;;;;;;;;;19.98;100.00;99038.81;5055179;28;19932;-78
2021/08/21 00:44:29;;;;;;;;;;;;;;;20.13;100.00;99044.56;5070580;28;19931;-78
2021/08/21 00:46:56;;;;;;;;;;;;;;;20.12;100.00;99042.94;5070152;28;19928;-78
2021/08/21 00:49:24;;;;;;;;;;;;;;;20.13;100.00;99036.03;5054151;28;19924;-78
2021/08/21 00:51:52;;;;;;;;;;;;;;;19.86;100.00;99037.06;5087099;28;20014;-78
2021/08/21 00:54:19;;;;;;;;;;;;;;;19.61;100.00;99038.38;5052549;28;19956;-78
2021/08/21 00:56:47;;;;;;;;;;;;;;;19.58;100.00;99038.56;5053660;28;19925;-78
2021/08/21 00:59:15;;;;;;;;;;;;;;;19.61;100.00;99043.28;5064368;28;19978;-78
2021/08/21 01:01:45;;;;;;;;;;;;;;;19.76;100.00;99040.47;5035423;28;19932;-78
2021/08/21 01:04:14;;;;;;;;;;;;;;;19.14;100.00;99031.94;5052583;28;19924;-78
2021/08/21 01:06:43;;;;;;;;;;;;;;;18.82;100.00;99039.22;5053574;28;19924;-78
2021/08/21 01:09:12;;;;;;;;;;;;;;;19.21;100.00;99043.69;5057723;28;19986;-78
2021/08/21 01:11:39;;;;;;;;;;;;;;;19.61;100.00;99034.78;5060343;28;19936;-78
2021/08/21 01:14:07;;;;;;;;;;;;;;;19.88;100.00;99033.72;5066898;28;20019;-78
2021/08/21 01:16:34;;;;;;;;;;;;;;;20.05;100.00;99029.16;5107305;28;19924;-78
2021/08/21 01:19:03;;;;;;;;;;;;;;;19.79;100.00;99036.66;5042932;28;19936;-78
2021/08/21 01:21:30;;;;;;;;;;;;;;;19.65;100.00;99038.19;5042975;28;19935;-78
2021/08/21 01:23:58;;;;;;;;;;;;;;;19.79;100.00;99042.31;5056726;28;19931;-78
2021/08/21 01:26:31;;;;;;;;;;;;;;;19.83;100.00;99040.09;5056450;28;19931;-78
2021/08/21 01:29:05;;;;;;;;;;;;;;;19.66;100.00;99034.06;5072875;28;20023;-78
2021/08/21 01:31:49;;;;;;;;;;;;;;;19.17;100.00;99030.97;5053155;28;19932;-78
2021/08/21 01:34:17;;;;;;;;;;;;;;;19.64;100.00;99037.41;5052963;28;20373;-78
2021/08/21 01:36:46;;;;;;;;;;;;;;;19.87;100.00;99032.97;5072602;28;19924;-78
2021/08/21 01:39:32;;;;;;;;;;;;;;;19.41;100.00;99032.56;5057943;28;19925;-78
2021/08/21 01:42:03;;;;;;;;;;;;;;;19.93;100.00;99041.56;5052495;28;19925;-78
2021/08/21 01:44:33;;;;;;;;;;;;;;;20.13;100.00;99036.81;5094300;28;20283;-79
2021/08/21 01:47:01;;;;;;;;;;;;;;;20.20;100.00;99033.59;5086266;28;19963;-79
2021/08/21 01:49:28;;;;;;;;;;;;;;;19.66;100.00;99034.88;5048685;28;19932;-78
2021/08/21 01:52:04;;;;;;;;;;;;;;;20.01;100.00;99031.41;5035183;28;19925;-78
2021/08/21 01:54:31;;;;;;;;;;;;;;;20.19;100.00;99034.84;5056766;28;20278;-78
2021/08/21 01:56:59;;;;;;;;;;;;;;;20.24;100.00;99034.16;5071123;28;19974;-78
2021/08/21 01:59:46;;;;;;;;;;;;;;;20.09;100.00;99022.00;5065785;28;20387;-78
2021/08/21 02:02:25;;;;;;;;;;;;;;;20.10;100.00;99011.47;5089371;28;19924;-78
2021/08/21 02:05:15;;;;;;;;;;;;;;;20.26;100.00;99019.50;5039557;28;20289;-79
2021/08/21 02:07:42;;;;;;;;;;;;;;;20.28;100.00;99003.53;5094702;28;19925;-79
2021/08/21 02:10:10;;;;;;;;;;;;;;;20.36;100.00;98995.41;5068749;28;19924;-78
2021/08/21 02:12:38;;;;;;;;;;;;;;;20.34;100.00;98987.38;5059173;28;19931;-78
2021/08/21 02:15:08;;;;;;;;;;;;;;;20.13;100.00;98976.47;5072033;28;19929;-78
2021/08/21 02:17:36;;;;;;;;;;;;;;;20.19;100.00;98975.28;5103922;28;20445;-78
2021/08/21 02:20:28;;;;;;;;;;;;;;;20.15;100.00;98980.38;5064004;28;19963;-78
2021/08/21 02:22:56;;;;;;;;;;;;;;;20.27;100.00;98987.00;5074709;28;19924;-78
2021/08/21 02:25:23;;;;;;;;;;;;;;;20.04;100.00;98990.72;5053150;28;20288;-78
2021/08/21 02:27:59;;;;;;;;;;;;;;;20.15;100.00;98988.88;5060070;28;20368;-78
2021/08/21 02:30:26;;;;;;;;;;;;;;;20.17;100.00;98994.06;5035652;28;19928;-78
2021/08/21 02:32:53;;;;;;;;;;;;;;;20.21;100.00;98977.63;5068741;28;19943;-79
2021/08/21 02:35:21;;;;;;;;;;;;;;;20.09;100.00;98992.84;5085457;28;19925;-78
2021/08/21 02:37:48;;;;;;;;;;;;;;;20.17;100.00;98982.72;5035393;28;20039;-78
2021/08/21 02:40:15;;;;;;;;;;;;;;;20.11;100.00;98979.78;5051519;28;19925;-78
2021/08/21 02:42:42;;;;;;;;;;;;;;;20.20;100.00;98973.22;5035405;28;20028;-78
2021/08/21 02:45:10;;;;;;;;;;;;;;;20.13;100.00;98980.06;5051845;28;19932;-78
2021/08/21 02:47:37;;;;;;;;;;;;;;;20.12;100.00;98975.66;5052019;28;19932;-79
2021/08/21 02:50:04;;;;;;;;;;;;;;;20.11;100.00;98981.81;5051642;28;19925;-79
2021/08/21 02:52:31;;;;;;;;;;;;;;;20.13;100.00;98974.41;5051816;28;19932;-79
2021/08/21 02:54:58;;;;;;;;;;;;;;;20.08;100.00;98979.97;5068480;28;19932;-78
2021/08/21 02:57:29;;;;;;;;;;;;;;;20.11;100.00;98978.97;5051890;28;19931;-78
2021/08/21 02:59:56;;;;;;;;;;;;;;;20.08;100.00;98982.78;5052902;28;19928;-78
2021/08/21 03:02:33;;;;;;;;;;;;;;;20.06;100.00;98982.50;5068707;28;19925;-78
2021/08/21 03:05:01;;;;;;;;;;;;;;;19.97;100.00;98979.75;5051572;28;19928;-78
2021/08/21 03:07:29;;;;;;;;;;;;;;;20.09;100.00;98975.84;5051888;28;19936;-79
2021/08/21 03:10:00;;;;;;;;;;;;;;;20.09;100.00;98975.84;5084919;28;20441;-78
2021/08/21 03:12:50;;;;;;;;;;;;;;;20.07;100.00;98967.06;5088692;28;19959;-78
2021/08/21 03:15:57;;;;;;;;;;;;;;;20.09;100.00;98970.16;5048550;28;19929;-78
2021/08/21 03:18:24;;;;;;;;;;;;;;;19.95;100.00;98970.97;5051315;28;19925;-79
2021/08/21 03:20:58;;;;;;;;;;;;;;;20.13;100.00;98962.28;5051702;28;19928;-78
2021/08/21 03:23:26;;;;;;;;;;;;;;;19.98;100.00;98958.66;5051305;28;19925;-78
2021/08/21 03:25:53;;;;;;;;;;;;;;;19.66;100.00;98964.00;5054811;28;19925;-78
2021/08/21 03:28:20;;;;;;;;;;;;;;;19.36;100.00;98970.91;5025076;28;19925;-78
2021/08/21 03:30:48;;;;;;;;;;;;;;;19.51;100.00;98968.88;5072210;28;19982;-78
2021/08/21 03:33:22;;;;;;;;;;;;;;;19.62;100.00;98966.25;5056281;28;19990;-78
2021/08/21 03:35:49;;;;;;;;;;;;;;;19.51;100.00;98960.38;5055239;28;20383;-78
2021/08/21 03:38:21;;;;;;;;;;;;;;;19.68;100.00;98958.66;5055006;28;19925;-79
2021/08/21 03:40:58;;;;;;;;;;;;;;;19.83;100.00;98952.97;5055162;28;19931;-78
2021/08/21 03:43:25;;;;;;;;;;;;;;;19.91;100.00;98962.66;5038308;28;19932;-78
2021/08/21 03:45:53;;;;;;;;;;;;;;;19.90;100.00;98948.97;5088616;28;19924;-78
2021/08/21 03:48:20;;;;;;;;;;;;;;;19.48;100.00;98952.84;5054816;28;20351;-78
2021/08/21 03:50:48;;;;;;;;;;;;;;;19.61;100.00;98953.34;5088540;28;19925;-78
2021/08/21 03:53:15;;;;;;;;;;;;;;;19.47;100.00;98950.50;5054529;28;19925;-78
2021/08/21 03:55:54;;;;;;;;;;;;;;;19.56;100.00;98958.91;5054802;28;19925;-79
2021/08/21 03:58:22;;;;;;;;;;;;;;;19.71;100.00;98951.22;5071255;28;19931;-78
2021/08/21 04:00:49;;;;;;;;;;;;;;;19.72;100.00;98957.66;5071397;28;19925;-78
2021/08/21 04:03:18;;;;;;;;;;;;;;;19.76;100.00;98963.91;5088170;28;19974;-78
2021/08/21 04:05:46;;;;;;;;;;;;;;;19.83;100.00;98952.97;5038187;28;20015;-78
2021/08/21 04:08:13;;;;;;;;;;;;;;;19.75;100.00;98951.03;5053965;28;19925;-79
2021/08/21 04:10:45;;;;;;;;;;;;;;;19.50;100.00;98953.16;5087985;28;19976;-78
2021/08/21 04:13:12;;;;;;;;;;;;;;;19.52;100.00;98944.94;5054522;28;19947;-78
2021/08/21 04:15:40;;;;;;;;;;;;;;;19.73;100.00;98953.56;5087643;28;19933;-78
2021/08/21 04:18:07;;;;;;;;;;;;;;;19.84;100.00;98953.75;5054237;28;19925;-78
2021/08/21 04:20:35;;;;;;;;;;;;;;;19.87;100.00;98956.41;5054356;28;20293;-79
2021/08/21 04:23:02;;;;;;;;;;;;;;;19.91;100.00;98953.38;5053420;28;19943;-78
2021/08/21 04:25:29;;;;;;;;;;;;;;;19.92;100.00;98950.03;5053969;28;20039;-78
2021/08/21 04:28:03;;;;;;;;;;;;;;;19.89;100.00;98950.25;5053803;28;19925;-78
2021/08/21 04:30:30;;;;;;;;;;;;;;;19.88;100.00;98954.34;5069240;28;19925;-78
2021/08/21 04:32:59;;;;;;;;;;;;;;;19.89;100.00;98950.25;5053881;28;20288;-78
2021/08/21 04:35:27;;;;;;;;;;;;;;;19.80;100.00;98951.13;5053957;28;20375;-78
2021/08/21 04:37:55;;;;;;;;;;;;;;;19.82;100.00;98953.47;5053539;28;20291;-78
2021/08/21 04:40:23;;;;;;;;;;;;;;;19.86;100.00;98956.91;5070297;28;19931;-78
2021/08/21 04:42:55;;;;;;;;;;;;;;;19.81;100.00;98954.75;5055152;28;20019;-78
2021/08/21 04:45:22;;;;;;;;;;;;;;;19.83;100.00;98952.97;5054960;28;19998;-78
2021/08/21 04:47:50;;;;;;;;;;;;;;;19.76;100.00;98956.22;5053821;28;20403;-78
2021/08/21 04:50:19;;;;;;;;;;;;;;;19.74;100.00;98958.75;5053634;28;19978;-78
2021/08/21 04:52:46;;;;;;;;;;;;;;;19.79;100.00;98960.09;5053640;28;19924;-78
2021/08/21 04:55:14;;;;;;;;;;;;;;;19.82;100.00;98951.41;5068748;28;19925;-78
2021/08/21 04:57:41;;;;;;;;;;;;;;;19.68;100.00;98955.81;5053581;28;19925;-78
2021/08/21 05:00:08;;;;;;;;;;;;;;;19.73;100.00;98960.03;5053649;28;20372;-78
2021/08/21 05:02:57;;;;;;;;;;;;;;;19.61;100.00;98952.59;5055859;28;20019;-78
2021/08/21 05:05:28;;;;;;;;;;;;;;;19.61;100.00;98953.34;5069794;28;20019;-78
2021/08/21 05:07:57;;;;;;;;;;;;;;;19.59;100.00;98955.91;5070130;28;19925;-78
2021/08/21 05:10:24;;;;;;;;;;;;;;;19.08;100.00;98952.53;5069679;28;19929;-78
2021/08/21 05:12:52;;;;;;;;;;;;;;;18.79;100.00;98965.78;5069871;28;20429;-78
2021/08/21 05:15:20;;;;;;;;;;;;;;;18.94;100.00;98973.09;5051318;28;20019;-78
2021/08/21 05:18:09;;;;;;;;;;;;;;;19.27;100.00;98968.16;5053394;28;19924;-78
2021/08/21 05:20:51;;;;;;;;;;;;;;;19.32;100.00;98966.69;5058019;28;19931;-78
2021/08/21 05:23:20;;;;;;;;;;;;;;;19.43;100.00;98976.19;5039651;28;19928;-78
2021/08/21 05:25:51;;;;;;;;;;;;;;;19.50;100.00;98975.81;5051409;28;19932;-78
2021/08/21 05:28:18;;;;;;;;;;;;;;;19.58;100.00;98971.31;5053252;28;19932;-78
2021/08/21 05:30:48;;;;;;;;;;;;;;;19.67;100.00;98967.63;5086131;28;19978;-77
2021/08/21 05:33:17;;;;;;;;;;;;;;;19.63;100.00;98967.81;5086264;28;19931;-77
2021/08/21 05:35:49;;;;;;;;;;;;;;;19.69;100.00;98965.88;5053958;28;19924;-79
2021/08/21 05:38:21;;;;;;;;;;;;;;;19.75;100.00;98962.38;5058775;28;20409;-79
2021/08/21 05:40:48;;;;;;;;;;;;;;;19.64;100.00;98962.94;5058457;28;20380;-79
2021/08/21 05:44:04;;;;;;;;;;;;;;;;;;;;;
2021/08/21 05:47:57;;;;;;;;;;;;;;;19.41;100.00;98973.06;4952765;28;19926;-77
2021/08/21 05:50:24;;;;;;;;;;;;;;;19.53;100.00;98986.19;4990459;28;20038;-77
2021/08/21 05:52:53;;;;;;;;;;;;;;;19.42;100.00;98979.50;4988758;28;19972;-77
2021/08/21 05:55:20;;;;;;;;;;;;;;;19.50;100.00;98981.50;5000834;28;19929;-77
2021/08/21 05:58:01;;;;;;;;;;;;;;;19.66;100.00;98983.06;4987505;28;19930;-78
2021/08/21 06:00:30;;;;;;;;;;;;;;;19.69;100.00;98976.41;4986494;28;19957;-77
2021/08/21 06:03:00;;;;;;;;;;;;;;;19.80;100.00;98979.47;4994388;28;19969;-78
2021/08/21 06:05:27;;;;;;;;;;;;;;;19.82;100.00;98978.97;4988604;28;19932;-78
2021/08/21 06:07:59;;;;;;;;;;;;;;;19.79;100.00;98980.75;4975458;28;19957;-78
2021/08/21 06:10:32;;;;;;;;;;;;;;;19.87;100.00;98981.13;4972633;28;19926;-78
2021/08/21 06:13:00;;;;;;;;;;;;;;;19.45;100.00;98981.38;4962511;28;19932;-78
2021/08/21 06:15:27;;;;;;;;;;;;;;;19.65;100.00;98982.28;4972577;28;19926;-78
2021/08/21 06:17:57;;;;;;;;;;;;;;;19.76;100.00;98983.75;5003954;28;19987;-78
2021/08/21 06:20:25;;;;;;;;;;;;;;;19.61;100.00;98970.34;5051701;28;19932;-77
2021/08/21 06:22:52;;;;;;;;;;;;;;;19.62;100.00;98973.97;5057506;28;19932;-77
2021/08/21 06:25:22;;;;;;;;;;;;;;;19.40;100.00;98984.88;5066613;28;19933;-78
2021/08/21 06:27:50;;;;;;;;;;;;;;;18.93;100.00;98982.81;5057814;28;20318;-79
2021/08/21 06:30:17;;;;;;;;;;;;;;;19.29;100.00;98993.94;5053532;28;19944;-79
2021/08/21 06:32:45;;;;;;;;;;;;;;;19.72;100.00;98986.00;5059167;28;19932;-80
2021/08/21 06:35:12;;;;;;;;;;;;;;;19.87;100.00;98995.31;5088573;28;19951;-80
2021/08/21 06:37:39;;;;;;;;;;;;;;;19.97;100.00;98989.06;5054182;28;19929;-79
2021/08/21 06:40:07;;;;;;;;;;;;;;;20.02;100.00;98988.38;5042137;28;19973;-80
2021/08/21 06:42:34;;;;;;;;;;;;;;;19.84;100.00;98991.41;5033527;28;19925;-80
2021/08/21 06:45:09;;;;;;;;;;;;;;;19.78;100.00;98989.72;5033798;28;19968;-80
2021/08/21 06:47:36;;;;;;;;;;;;;;;19.90;100.00;98989.47;5015793;28;19925;-80
2021/08/21 06:50:05;;;;;;;;;;;;;;;19.94;100.00;98983.56;5015911;28;19952;-80
2021/08/21 06:52:31;;;;;;;;;;;;;;;19.92;100.00;98980.47;5033410;28;19933;-79
2021/08/21 06:54:58;;;;;;;;;;;;;;;20.13;100.00;98996.34;5033458;28;20389;-79
2021/08/21 06:57:25;;;;;;;;;;;;;;;19.56;100.00;98985.22;5015769;28;19925;-79
2021/08/21 06:59:52;;;;;;;;;;;;;;;19.44;100.00;98985.47;4999489;28;20064;-79
2021/08/21 07:02:20;;;;;;;;;;;;;;;19.57;100.00;98992.44;5018846;28;19925;-81
2021/08/21 07:04:47;;;;;;;;;;;;;;;19.97;100.00;98985.44;5037922;28;19974;-81
2021/08/21 07:07:14;;;;;;;;;;;;;;;19.81;100.00;98978.22;5018794;28;19925;-81
2021/08/21 07:09:44;;;;;;;;;;;;;;;19.89;100.00;98978.59;5030350;28;19929;-85
2021/08/21 07:12:11;;;;;;;;;;;;;;;20.22;100.00;98979.22;5036902;28;19936;-83
2021/08/21 07:14:38;;;;;;;;;;;;;;;20.34;100.00;98980.94;5034423;28;19925;-78
2021/08/21 07:17:08;;;;;;;;;;;;;;;20.42;100.00;98977.22;5028964;28;19926;-81
2021/08/21 07:19:35;;;;;;;;;;;;;;;20.21;100.00;98969.13;5036056;28;19932;-82
2021/08/21 07:22:02;;;;;;;;;;;;;;;19.88;100.00;98979.84;4991288;28;20272;-81
2021/08/21 07:24:29;;;;;;;;;;;;;;;19.65;100.00;98990.81;5003136;28;20403;-81
2021/08/21 07:26:56;;;;;;;;;;;;;;;19.85;100.00;98992.19;5035748;28;20315;-81
2021/08/21 07:29:28;;;;;;;;;;;;;;;18.98;100.00;98989.88;5037130;28;19979;-84
2021/08/21 07:31:56;;;;;;;;;;;;;;;19.68;100.00;98991.88;5037718;28;20016;-80
2021/08/21 07:34:22;;;;;;;;;;;;;;;19.90;100.00;98991.50;5029956;28;19960;-79
2021/08/21 07:36:50;;;;;;;;;;;;;;;19.99;100.00;98994.25;5036579;28;19925;-79
2021/08/21 07:39:16;;;;;;;;;;;;;;;19.76;100.00;98997.94;5030687;28;19932;-79
2021/08/21 07:41:44;;;;;;;;;;;;;;;20.08;100.00;98999.81;5073558;28;19974;-79
2021/08/21 07:44:11;;;;;;;;;;;;;;;19.54;100.00;99003.94;5073377;28;19950;-79
2021/08/21 07:46:39;;;;;;;;;;;;;;;20.03;100.00;99014.66;5070483;28;19929;-79
2021/08/21 07:49:07;;;;;;;;;;;;;;;19.72;100.00;99000.19;5072379;28;20058;-79
2021/08/21 07:51:34;;;;;;;;;;;;;;;20.32;100.00;98992.00;5063659;28;19925;-79
2021/08/21 07:54:01;;;;;;;;;;;;;;;20.37;100.00;98968.63;5073704;28;19985;-79
2021/08/21 07:56:28;;;;;;;;;;;;;;;20.24;100.00;98979.47;5098697;28;19931;-80
2021/08/21 07:58:55;;;;;;;;;;;;;;;19.95;100.00;98982.31;5074175;28;19931;-79
2021/08/21 08:01:22;;;;;;;;;;;;;;;20.07;100.00;98967.06;5055472;28;20391;-79
2021/08/21 08:03:49;;;;;;;;;;;;;;;20.42;100.00;98956.56;5073090;28;20015;-80
2021/08/21 08:06:16;;;;;;;;;;;;;;;20.42;100.00;98959.38;5073450;28;19925;-80
2021/08/21 08:08:43;;;;;;;;;;;;;;;19.35;100.00;98986.34;5056394;28;19977;-80
2021/08/21 08:11:13;;;;;;;;;;;;;;;19.33;100.00;99005.06;5071574;28;19925;-79
2021/08/21 08:13:40;;;;;;;;;;;;;;;19.51;100.00;98988.72;5069725;28;20269;-79
2021/08/21 08:16:07;;;;;;;;;;;;;;;19.47;100.00;98982.47;5072169;28;19925;-79
2021/08/21 08:18:34;;;;;;;;;;;;;;;19.84;100.00;98987.78;5070771;28;19966;-80
2021/08/21 08:21:02;;;;;;;;;;;;;;;20.12;100.00;98980.53;5074326;28;19997;-79
2021/08/21 08:23:29;;;;;;;;;;;;;;;20.29;100.00;98979.59;5053968;28;19924;-79
2021/08/21 08:25:56;;;;;;;;;;;;;;;19.77;100.00;98982.47;5052942;28;20077;-79
2021/08/21 08:28:25;;;;;;;;;;;;;;;20.08;100.00;98985.63;5053921;28;19933;-80
2021/08/21 08:30:53;;;;;;;;;;;;;;;20.29;100.00;98990.16;5068413;28;19929;-80
2021/08/21 08:33:22;;;;;;;;;;;;;;;19.76;100.00;98995.09;5084627;28;19924;-80
2021/08/21 08:35:51;;;;;;;;;;;;;;;19.95;100.00;98993.66;5075380;28;19925;-80
2021/08/21 08:38:21;;;;;;;;;;;;;;;20.40;100.00;98984.66;5060129;28;20485;-79
2021/08/21 08:40:48;;;;;;;;;;;;;;;20.63;100.00;98986.56;5062453;28;19931;-79
2021/08/21 08:43:18;;;;;;;;;;;;;;;20.83;100.00;98980.91;5070557;28;19925;-79
2021/08/21 08:45:45;;;;;;;;;;;;;;;19.79;100.00;98991.28;5072407;28;19924;-79
2021/08/21 08:48:14;;;;;;;;;;;;;;;19.67;100.00;99002.41;5062841;28;20390;-89
2021/08/21 08:50:45;;;;;;;;;;;;;;;19.55;100.00;99002.69;5049243;28;19928;-86
2021/08/21 08:53:12;;;;;;;;;;;;;;;20.18;100.00;99009.81;5067920;28;19951;-86
2021/08/21 08:55:40;;;;;;;;;;;;;;;19.78;100.00;99009.56;5064494;28;19929;-86
2021/08/21 08:58:07;;;;;;;;;;;;;;;19.85;100.00;99001.47;5059551;28;19925;-86
2021/08/21 09:00:34;;;;;;;;;;;;;;;20.15;100.00;99007.94;5047202;28;19924;-80
2021/08/21 09:03:03;;;;;;;;;;;;;;;19.94;100.00;98992.09;5071837;28;19929;-79
2021/08/21 09:05:40;;;;;;;;;;;;;;;20.38;100.00;98975.84;5073071;28;20019;-80
2021/08/21 09:08:18;;;;;;;;;;;;;;;20.78;100.00;98973.13;5043364;28;19925;-79
2021/08/21 09:10:45;;;;;;;;;;;;;;;19.77;100.00;98966.25;5043546;28;19925;-79
2021/08/21 09:13:17;;;;;;;;;;;;;;;20.01;100.00;98969.78;5069728;28;19925;-79
2021/08/21 09:15:44;;;;;;;;;;;;;;;20.58;100.00;98978.75;5054671;28;19925;-79
2021/08/21 09:18:15;;;;;;;;;;;;;;;20.65;100.00;98978.31;5054368;28;19925;-79
2021/08/21 09:20:48;;;;;;;;;;;;;;;20.48;100.00;98971.59;5053115;28;19936;-79
2021/08/21 09:23:20;;;;;;;;;;;;;;;19.76;100.00;98987.38;5086230;28;20386;-79
2021/08/21 09:25:48;;;;;;;;;;;;;;;19.56;100.00;98985.22;5059375;28;19925;-81
2021/08/21 09:28:18;;;;;;;;;;;;;;;19.65;100.00;98987.16;5054723;28;19929;-80
2021/08/21 09:30:47;;;;;;;;;;;;;;;20.16;100.00;98981.94;5024330;28;19925;-81
2021/08/21 09:33:18;;;;;;;;;;;;;;;19.99;100.00;98982.91;5054472;28;19931;-81
2021/08/21 09:35:45;;;;;;;;;;;;;;;20.61;100.00;98972.09;5036280;28;19932;-81
2021/08/21 09:38:12;;;;;;;;;;;;;;;20.93;100.00;98960.41;5053108;28;19998;-81
2021/08/21 09:40:40;;;;;;;;;;;;;;;21.13;100.00;98965.34;5054326;28;19931;-82
2021/08/21 09:43:21;;;;;;;;;;;;;;;21.37;100.00;98965.91;5086180;28;19997;-82
2021/08/21 09:46:06;;;;;;;;;;;;;;;21.37;100.00;98966.69;5052895;28;19942;-80
2021/08/21 09:48:33;;;;;;;;;;;;;;;21.15;100.00;98965.63;5054129;28;19925;-80
2021/08/21 09:51:00;;;;;;;;;;;;;;;21.50;100.00;98962.69;5085869;28;19929;-80
2021/08/21 09:53:34;;;;;;;;;;;;;;;20.68;100.00;98957.47;5053475;28;19925;-79
2021/08/21 09:56:11;;;;;;;;;;;;;;;20.68;100.00;98965.97;5053474;28;19982;-80
2021/08/21 09:58:39;;;;;;;;;;;;;;;21.65;100.00;98961.31;5053740;28;20011;-80
2021/08/21 10:01:07;;;;;;;;;;;;;;;21.57;100.00;98951.66;5053714;28;19931;-80
2021/08/21 10:03:35;;;;;;;;;;;;;;;21.01;100.00;98949.44;5051805;28;19931;-80
2021/08/21 10:06:02;;;;;;;;;;;;;;;21.45;100.00;98952.81;5085258;28;19929;-80
2021/08/21 10:08:29;;;;;;;;;;;;;;;21.25;100.00;98952.81;5068600;28;20308;-80
2021/08/21 10:10:59;;;;;;;;;;;;;;;21.37;100.00;98957.38;5052128;28;19935;-80
2021/08/21 10:13:28;;;;;;;;;;;;;;;21.76;100.00;98952.13;5068702;28;19924;-80
2021/08/21 10:15:56;;;;;;;;;;;;;;;20.75;100.00;98954.22;5053846;28;20011;-80
2021/08/21 10:18:23;;;;;;;;;;;;;;;20.56;100.00;98958.56;5068715;28;19951;-81
2021/08/21 10:20:52;;;;;;;;;;;;;;;21.42;100.00;98954.59;5052454;28;19929;-80
2021/08/21 10:23:26;;;;;;;;;;;;;;;21.50;100.00;98954.16;5052005;28;20322;-80
2021/08/21 10:25:57;;;;;;;;;;;;;;;21.88;100.00;98948.13;5035653;28;19933;-82
2021/08/21 10:28:28;;;;;;;;;;;;;;;21.99;100.00;98943.31;5069066;28;19924;-80
2021/08/21 10:30:55;;;;;;;;;;;;;;;21.76;100.00;98952.94;5065695;28;19924;-81
2021/08/21 10:33:22;;;;;;;;;;;;;;;21.74;100.00;98948.97;5051404;28;19935;-82
2021/08/21 10:35:51;;;;;;;;;;;;;;;21.12;100.00;98955.25;5070847;28;19994;-82
2021/08/21 10:38:44;;;;;;;;;;;;;;;21.35;100.00;98954.25;5052584;28;19924;-82
2021/08/21 10:41:12;;;;;;;;;;;;;;;21.45;100.00;98944.28;5050257;28;20358;-82
2021/08/21 10:43:45;;;;;;;;;;;;;;;21.64;100.00;98947.59;5052490;28;19931;-82
2021/08/21 10:46:32;;;;;;;;;;;;;;;21.90;100.00;98960.53;5085592;28;19935;-82
2021/08/21 10:49:03;;;;;;;;;;;;;;;21.80;100.00;98959.16;5052265;28;19931;-82
2021/08/21 10:51:37;;;;;;;;;;;;;;;21.49;100.00;98952.59;5037248;28;19925;-83
2021/08/21 10:54:23;;;;;;;;;;;;;;;19.99;100.00;98954.53;5054090;28;19924;-82
2021/08/21 10:56:51;;;;;;;;;;;;;;;20.73;100.00;98957.56;5084199;28;20355;-82
2021/08/21 11:02:33;;;;;;;;;;;;;;;21.40;100.00;98954.31;5044874;28;19931;-82
2021/08/21 11:05:00;;;;;;;;;;;;;;;21.46;100.00;98960.06;5052131;28;19925;-82
2021/08/21 11:07:31;;;;;;;;;;;;;;;21.33;100.00;98966.13;5053430;28;19932;-82
2021/08/21 11:10:16;;;;;;;;;;;;;;;20.82;100.00;98962.31;5052065;28;19925;-82
2021/08/21 11:12:46;;;;;;;;;;;;;;;21.19;100.00;98960.50;5052236;28;19931;-82
2021/08/21 11:15:14;;;;;;;;;;;;;;;21.21;100.00;98961.59;5055515;28;19924;-82
2021/08/21 11:17:42;;;;;;;;;;;;;;;21.71;100.00;98962.16;5053274;28;19925;-82
2021/08/21 11:20:25;;;;;;;;;;;;;;;21.66;100.00;98962.84;5054450;28;19925;-84
2021/08/21 11:23:05;;;;;;;;;;;;;;;21.22;100.00;98963.13;5067148;28;19928;-84
2021/08/21 11:25:32;;;;;;;;;;;;;;;21.36;100.00;98959.44;5053963;28;19925;-85
2021/08/21 11:28:03;;;;;;;;;;;;;;;21.39;100.00;98958.44;5035146;28;19974;-85
2021/08/21 11:30:30;;;;;;;;;;;;;;;21.00;100.00;98960.03;5051972;28;19940;-84
2021/08/21 11:32:58;;;;;;;;;;;;;;;20.87;100.00;98961.63;5068333;28;19925;-84
2021/08/21 11:35:25;;;;;;;;;;;;;;;20.61;100.00;98966.41;5077464;28;19988;-84
2021/08/21 11:37:52;;;;;;;;;;;;;;;20.69;100.00;98959.03;5038259;28;20384;-84
2021/08/21 11:40:39;;;;;;;;;;;;;;;19.25;100.00;98970.63;5054018;28;20457;-84
2021/08/21 11:43:07;;;;;;;;;;;;;;;19.43;100.00;98972.59;5064193;28;19925;-84
2021/08/21 11:45:34;;;;;;;;;;;;;;;19.51;100.00;98971.72;5051520;28;19932;-84
2021/08/21 11:48:01;;;;;;;;;;;;;;;20.04;100.00;98973.72;5030097;28;19925;-84
2021/08/21 11:50:35;;;;;;;;;;;;;;;21.07;100.00;98975.84;5038716;28;20384;-83
2021/08/21 11:53:04;;;;;;;;;;;;;;;21.20;100.00;98964.94;5048131;28;19929;-80
2021/08/21 11:55:32;;;;;;;;;;;;;;;21.66;100.00;98960.03;5057391;28;20269;-80
2021/08/21 11:57:59;;;;;;;;;;;;;;;21.35;100.00;98954.25;5050310;28;19973;-80
2021/08/21 12:00:28;;;;;;;;;;;;;;;21.88;100.00;98959.50;5062842;28;20350;-80
2021/08/21 12:02:58;;;;;;;;;;;;;;;22.02;100.00;98948.00;5071575;28;20019;-78
2021/08/21 12:05:28;;;;;;;;;;;;;;;22.13;100.00;98955.88;5069172;28;19924;-79
2021/08/21 12:07:56;;;;;;;;;;;;;;;21.41;100.00;98949.41;5055775;28;20299;-79
2021/08/21 12:10:27;;;;;;;;;;;;;;;21.47;100.00;98946.63;5080043;28;20392;-78
2021/08/21 12:12:55;;;;;;;;;;;;;;;21.76;100.00;98947.25;5055543;28;19925;-78
2021/08/21 12:15:26;;;;;;;;;;;;;;;21.81;100.00;98943.66;5055445;28;19952;-78
2021/08/21 12:17:53;;;;;;;;;;;;;;;22.09;100.00;98935.38;5055681;28;20281;-78
2021/08/21 12:20:21;;;;;;;;;;;;;;;22.00;100.00;98930.66;5087304;28;19936;-78
2021/08/21 12:22:49;;;;;;;;;;;;;;;22.05;100.00;98935.63;5055318;28;20020;-78
2021/08/21 12:26:34;;;;;;;;;;;;;;;21.80;100.00;98933.56;5090815;28;20318;-78
2021/08/21 12:29:01;;;;;;;;;;;;;;;21.67;100.00;98924.63;5089697;28;19924;-78
2021/08/21 12:31:35;;;;;;;;;;;;;;;22.15;100.00;98925.63;5090594;28;20015;-78
2021/08/21 12:34:02;;;;;;;;;;;;;;;21.79;100.00;98929.19;5090352;28;19925;-78
2021/08/21 12:36:29;;;;;;;;;;;;;;;22.00;100.00;98924.97;5090508;28;19924;-78
2021/08/21 12:39:02;;;;;;;;;;;;;;;22.11;100.00;98925.06;5086092;28;20326;-79
2021/08/21 12:41:30;;;;;;;;;;;;;;;22.18;100.00;98926.66;5071685;28;19925;-80
2021/08/21 12:44:08;;;;;;;;;;;;;;;22.14;100.00;98923.28;5070197;28;19924;-84
2021/08/21 12:46:36;;;;;;;;;;;;;;;22.08;100.00;98917.53;5079283;28;20015;-86
2021/08/21 12:49:04;;;;;;;;;;;;;;;21.87;100.00;98913.19;5074478;28;19929;-83
2021/08/21 12:51:35;;;;;;;;;;;;;;;20.94;100.00;98922.22;5092157;28;19932;-83
2021/08/21 12:54:06;;;;;;;;;;;;;;;20.74;100.00;98921.41;5072651;28;20003;-84
2021/08/21 12:56:33;;;;;;;;;;;;;;;20.20;100.00;98930.69;5058642;28;20652;-85